sensor_id;sensor_type;location;lat;lon;timestamp;pressure;altitude;pressure_sealevel;temperature;humidity
76352;BME280;65179;47.786;19.138;2024-01-15T00:00:14;99203.22;;;-3.20;88.59
76352;BME280;65179;47.786;19.138;2024-01-15T00:02:40;99187.97;;;-3.18;88.62
76352;BME280;65179;47.786;19.138;2024-01-15T00:05:05;99191.16;;;-3.14;89.07
76352;BME280;65179;47.786;19.138;2024-01-15T00:07:31;99184.50;;;-3.10;88.81
76352;BME280;65179;47.786;19.138;2024-01-15T00:09:56;99174.38;;;-3.07;88.78
76352;BME280;65179;47.786;19.138;2024-01-15T00:12:22;99179.22;;;-3.02;89.11
76352;BME280;65179;47.786;19.138;2024-01-15T00:14:47;99172.06;;;-3.01;89.22
76352;BME280;65179;47.786;19.138;2024-01-15T00:17:12;99177.72;;;-3.04;90.98
76352;BME280;65179;47.786;19.138;2024-01-15T00:19:38;99171.59;;;-2.89;90.22
76352;BME280;65179;47.786;19.138;2024-01-15T00:22:03;99155.34;;;-2.86;89.86
76352;BME280;65179;47.786;19.138;2024-01-15T00:24:29;99161.63;;;-2.79;89.39
76352;BME280;65179;47.786;19.138;2024-01-15T00:26:54;99151.50;;;-2.75;89.08
76352;BME280;65179;47.786;19.138;2024-01-15T00:29:20;99149.53;;;-2.73;89.16
76352;BME280;65179;47.786;19.138;2024-01-15T00:31:46;99131.22;;;-2.68;89.42
76352;BME280;65179;47.786;19.138;2024-01-15T00:34:11;99145.53;;;-2.69;89.69
76352;BME280;65179;47.786;19.138;2024-01-15T00:36:37;99139.37;;;-2.62;89.30
76352;BME280;65179;47.786;19.138;2024-01-15T00:39:02;99135.56;;;-2.59;89.27
76352;BME280;65179;47.786;19.138;2024-01-15T00:41:30;99143.50;;;-2.51;89.10
76352;BME280;65179;47.786;19.138;2024-01-15T00:43:55;99134.91;;;-2.61;90.08
76352;BME280;65179;47.786;19.138;2024-01-15T00:46:21;99121.59;;;-2.53;89.62
76352;BME280;65179;47.786;19.138;2024-01-15T00:48:47;99121.94;;;-2.48;89.19
76352;BME280;65179;47.786;19.138;2024-01-15T00:51:12;99121.25;;;-2.42;89.34
76352;BME280;65179;47.786;19.138;2024-01-15T00:53:38;99119.59;;;-2.43;89.14
76352;BME280;65179;47.786;19.138;2024-01-15T00:56:04;99106.66;;;-2.54;90.57
76352;BME280;65179;47.786;19.138;2024-01-15T00:58:29;99110.31;;;-2.47;89.58
76352;BME280;65179;47.786;19.138;2024-01-15T01:00:54;99115.28;;;-2.52;89.50
76352;BME280;65179;47.786;19.138;2024-01-15T01:03:20;99111.28;;;-2.48;89.59
76352;BME280;65179;47.786;19.138;2024-01-15T01:05:49;99108.13;;;-2.44;89.58
76352;BME280;65179;47.786;19.138;2024-01-15T01:08:17;99102.34;;;-2.47;89.78
76352;BME280;65179;47.786;19.138;2024-01-15T01:10:43;99101.34;;;-2.54;89.63
76352;BME280;65179;47.786;19.138;2024-01-15T01:13:09;99108.31;;;-2.53;89.42
76352;BME280;65179;47.786;19.138;2024-01-15T01:15:34;99100.19;;;-2.52;89.44
76352;BME280;65179;47.786;19.138;2024-01-15T01:18:00;99107.28;;;-2.44;89.33
76352;BME280;65179;47.786;19.138;2024-01-15T01:20:25;99098.34;;;-2.43;89.04
76352;BME280;65179;47.786;19.138;2024-01-15T01:22:50;99085.69;;;-2.41;88.96
76352;BME280;65179;47.786;19.138;2024-01-15T01:25:16;99094.34;;;-2.39;88.75
76352;BME280;65179;47.786;19.138;2024-01-15T01:27:41;99083.38;;;-2.36;88.63
76352;BME280;65179;47.786;19.138;2024-01-15T01:30:07;99080.72;;;-2.36;88.38
76352;BME280;65179;47.786;19.138;2024-01-15T01:32:32;99059.75;;;-2.31;88.58
76352;BME280;65179;47.786;19.138;2024-01-15T01:34:58;99056.75;;;-2.28;88.53
76352;BME280;65179;47.786;19.138;2024-01-15T01:37:23;99045.09;;;-2.27;88.29
76352;BME280;65179;47.786;19.138;2024-01-15T01:39:48;99044.62;;;-2.31;88.32
76352;BME280;65179;47.786;19.138;2024-01-15T01:42:14;99048.13;;;-2.38;89.00
76352;BME280;65179;47.786;19.138;2024-01-15T01:44:39;99040.34;;;-2.40;89.07
76352;BME280;65179;47.786;19.138;2024-01-15T01:47:05;99047.31;;;-2.39;88.65
76352;BME280;65179;47.786;19.138;2024-01-15T01:49:31;99042.34;;;-2.42;88.61
76352;BME280;65179;47.786;19.138;2024-01-15T01:51:59;99057.31;;;-2.49;88.76
76352;BME280;65179;47.786;19.138;2024-01-15T01:54:28;99047.19;;;-2.45;88.63
76352;BME280;65179;47.786;19.138;2024-01-15T01:56:54;99034.03;;;-2.47;88.24
76352;BME280;65179;47.786;19.138;2024-01-15T01:59:21;99034.22;;;-2.48;88.41
76352;BME280;65179;47.786;19.138;2024-01-15T02:01:48;99036.53;;;-2.45;88.10
76352;BME280;65179;47.786;19.138;2024-01-15T02:04:15;99031.88;;;-2.43;88.15
76352;BME280;65179;47.786;19.138;2024-01-15T02:06:41;99037.88;;;-2.41;87.96
76352;BME280;65179;47.786;19.138;2024-01-15T02:09:08;99032.87;;;-2.44;87.82
76352;BME280;65179;47.786;19.138;2024-01-15T02:11:33;99030.72;;;-2.41;87.63
76352;BME280;65179;47.786;19.138;2024-01-15T02:13:59;99020.25;;;-2.42;87.72
76352;BME280;65179;47.786;19.138;2024-01-15T02:16:24;99012.78;;;-2.47;87.68
76352;BME280;65179;47.786;19.138;2024-01-15T02:18:50;99003.63;;;-2.44;87.82
76352;BME280;65179;47.786;19.138;2024-01-15T02:21:15;98993.19;;;-2.46;87.82
76352;BME280;65179;47.786;19.138;2024-01-15T02:23:40;98997.66;;;-2.46;87.71
76352;BME280;65179;47.786;19.138;2024-01-15T02:26:07;98992.03;;;-2.43;88.14
76352;BME280;65179;47.786;19.138;2024-01-15T02:28:33;98981.38;;;-2.43;88.39
76352;BME280;65179;47.786;19.138;2024-01-15T02:30:59;98974.72;;;-2.39;88.81
76352;BME280;65179;47.786;19.138;2024-01-15T02:33:24;98975.22;;;-2.44;88.56
76352;BME280;65179;47.786;19.138;2024-01-15T02:35:50;98975.78;;;-2.56;89.59
76352;BME280;65179;47.786;19.138;2024-01-15T02:38:16;98992.75;;;-2.65;89.90
76352;BME280;65179;47.786;19.138;2024-01-15T02:40:42;98992.59;;;-2.72;90.08
76352;BME280;65179;47.786;19.138;2024-01-15T02:43:08;98998.75;;;-2.71;89.58
76352;BME280;65179;47.786;19.138;2024-01-15T02:45:33;99001.06;;;-2.68;89.67
76352;BME280;65179;47.786;19.138;2024-01-15T02:47:58;99016.84;;;-2.67;89.42
76352;BME280;65179;47.786;19.138;2024-01-15T02:50:24;99026.63;;;-2.67;88.99
76352;BME280;65179;47.786;19.138;2024-01-15T02:52:49;99019.66;;;-2.68;89.29
76352;BME280;65179;47.786;19.138;2024-01-15T02:55:15;99003.06;;;-2.62;89.25
76352;BME280;65179;47.786;19.138;2024-01-15T02:57:40;98995.72;;;-2.60;89.21
76352;BME280;65179;47.786;19.138;2024-01-15T03:00:06;98990.41;;;-2.60;89.14
76352;BME280;65179;47.786;19.138;2024-01-15T03:02:32;98987.41;;;-2.57;89.22
76352;BME280;65179;47.786;19.138;2024-01-15T03:04:58;98984.75;;;-2.57;88.77
76352;BME280;65179;47.786;19.138;2024-01-15T03:07:23;98983.25;;;-2.60;89.73
76352;BME280;65179;47.786;19.138;2024-01-15T03:09:49;98971.13;;;-2.54;89.32
76352;BME280;65179;47.786;19.138;2024-01-15T03:12:15;98960.81;;;-2.49;89.27
76352;BME280;65179;47.786;19.138;2024-01-15T03:14:40;98953.56;;;-2.63;90.06
76352;BME280;65179;47.786;19.138;2024-01-15T03:17:06;98960.16;;;-2.59;89.41
76352;BME280;65179;47.786;19.138;2024-01-15T03:19:35;98960.69;;;-2.56;89.49
76352;BME280;65179;47.786;19.138;2024-01-15T03:22:00;98966.13;;;-2.49;89.81
76352;BME280;65179;47.786;19.138;2024-01-15T03:24:27;98969.75;;;-2.42;89.67
76352;BME280;65179;47.786;19.138;2024-01-15T03:26:53;98972.06;;;-2.39;89.79
76352;BME280;65179;47.786;19.138;2024-01-15T03:29:18;98961.91;;;-2.36;90.41
76352;BME280;65179;47.786;19.138;2024-01-15T03:31:44;98955.41;;;-2.33;89.93
76352;BME280;65179;47.786;19.138;2024-01-15T03:34:09;98939.47;;;-2.33;90.03
76352;BME280;65179;47.786;19.138;2024-01-15T03:36:34;98952.75;;;-2.33;90.25
76352;BME280;65179;47.786;19.138;2024-01-15T03:39:00;98955.78;;;-2.36;90.51
76352;BME280;65179;47.786;19.138;2024-01-15T03:41:25;98949.13;;;-2.40;90.80
76352;BME280;65179;47.786;19.138;2024-01-15T03:43:51;98939.41;;;-2.56;91.64
76352;BME280;65179;47.786;19.138;2024-01-15T03:46:16;98921.97;;;-2.58;91.03
76352;BME280;65179;47.786;19.138;2024-01-15T03:48:42;98920.03;;;-2.72;91.56
76352;BME280;65179;47.786;19.138;2024-01-15T03:51:07;98932.84;;;-2.76;91.67
76352;BME280;65179;47.786;19.138;2024-01-15T03:53:32;98954.13;;;-2.84;92.11
76352;BME280;65179;47.786;19.138;2024-01-15T03:55:58;98955.94;;;-2.84;91.99
76352;BME280;65179;47.786;19.138;2024-01-15T03:58:23;98954.78;;;-2.82;91.72
76352;BME280;65179;47.786;19.138;2024-01-15T04:00:49;98951.47;;;-2.84;92.03
76352;BME280;65179;47.786;19.138;2024-01-15T04:03:14;98951.47;;;-2.84;91.90
76352;BME280;65179;47.786;19.138;2024-01-15T04:05:40;98954.63;;;-2.88;91.69
76352;BME280;65179;47.786;19.138;2024-01-15T04:08:05;98934.87;;;-2.94;91.51
76352;BME280;65179;47.786;19.138;2024-01-15T04:10:31;98932.72;;;-2.98;91.74
76352;BME280;65179;47.786;19.138;2024-01-15T04:12:56;98926.09;;;-3.02;91.46
76352;BME280;65179;47.786;19.138;2024-01-15T04:15:24;98915.19;;;-3.08;91.73
76352;BME280;65179;47.786;19.138;2024-01-15T04:17:50;98923.66;;;-3.12;91.84
76352;BME280;65179;47.786;19.138;2024-01-15T04:20:16;98921.19;;;-3.22;91.61
76352;BME280;65179;47.786;19.138;2024-01-15T04:22:41;98920.53;;;-3.24;91.87
76352;BME280;65179;47.786;19.138;2024-01-15T04:25:07;98912.88;;;-3.27;91.75
76352;BME280;65179;47.786;19.138;2024-01-15T04:27:32;98914.22;;;-3.31;92.10
76352;BME280;65179;47.786;19.138;2024-01-15T04:29:57;98909.75;;;-3.38;91.79
76352;BME280;65179;47.786;19.138;2024-01-15T04:32:23;98915.41;;;-3.41;92.32
76352;BME280;65179;47.786;19.138;2024-01-15T04:34:48;98916.25;;;-3.49;92.13
76352;BME280;65179;47.786;19.138;2024-01-15T04:37:14;98890.88;;;-3.51;91.93
76352;BME280;65179;47.786;19.138;2024-01-15T04:39:39;98895.66;;;-3.55;92.14
76352;BME280;65179;47.786;19.138;2024-01-15T04:42:05;98900.66;;;-3.52;92.22
76352;BME280;65179;47.786;19.138;2024-01-15T04:44:30;98895.53;;;-3.53;92.57
76352;BME280;65179;47.786;19.138;2024-01-15T04:46:55;98905.63;;;-3.57;92.83
76352;BME280;65179;47.786;19.138;2024-01-15T04:49:21;98904.31;;;-3.61;92.53
76352;BME280;65179;47.786;19.138;2024-01-15T04:51:46;98916.41;;;-3.58;92.80
76352;BME280;65179;47.786;19.138;2024-01-15T04:54:12;98904.31;;;-3.61;92.78
76352;BME280;65179;47.786;19.138;2024-01-15T04:56:38;98888.75;;;-3.64;92.80
76352;BME280;65179;47.786;19.138;2024-01-15T04:59:03;98887.72;;;-3.63;93.04
76352;BME280;65179;47.786;19.138;2024-01-15T05:01:32;98893.34;;;-3.66;94.40
76352;BME280;65179;47.786;19.138;2024-01-15T05:03:58;98916.91;;;-3.63;93.65
76352;BME280;65179;47.786;19.138;2024-01-15T05:06:24;98919.72;;;-3.64;93.65
76352;BME280;65179;47.786;19.138;2024-01-15T05:08:49;98919.56;;;-3.71;93.76
76352;BME280;65179;47.786;19.138;2024-01-15T05:11:14;98923.19;;;-3.72;93.21
76352;BME280;65179;47.786;19.138;2024-01-15T05:13:40;98915.09;;;-3.70;93.66
76352;BME280;65179;47.786;19.138;2024-01-15T05:16:06;98922.22;;;-3.71;93.59
76352;BME280;65179;47.786;19.138;2024-01-15T05:18:31;98909.94;;;-3.80;94.77
76352;BME280;65179;47.786;19.138;2024-01-15T05:20:56;98923.56;;;-3.75;94.39
76352;BME280;65179;47.786;19.138;2024-01-15T05:23:22;98928.50;;;-3.72;93.92
76352;BME280;65179;47.786;19.138;2024-01-15T05:25:47;98932.47;;;-3.76;94.33
76352;BME280;65179;47.786;19.138;2024-01-15T05:28:14;98911.59;;;-3.71;94.24
76352;BME280;65179;47.786;19.138;2024-01-15T05:30:39;98914.59;;;-3.74;93.81
76352;BME280;65179;47.786;19.138;2024-01-15T05:33:04;98921.38;;;-3.71;94.45
76352;BME280;65179;47.786;19.138;2024-01-15T05:35:30;98917.91;;;-3.72;93.91
76352;BME280;65179;47.786;19.138;2024-01-15T05:37:55;98919.88;;;-3.74;93.88
76352;BME280;65179;47.786;19.138;2024-01-15T05:40:21;98909.44;;;-3.75;93.73
76352;BME280;65179;47.786;19.138;2024-01-15T05:42:46;98913.91;;;-3.68;94.36
76352;BME280;65179;47.786;19.138;2024-01-15T05:45:12;98918.25;;;-3.67;94.77
76352;BME280;65179;47.786;19.138;2024-01-15T05:47:37;98908.97;;;-3.71;94.19
76352;BME280;65179;47.786;19.138;2024-01-15T05:50:03;98898.66;;;-3.74;94.38
76352;BME280;65179;47.786;19.138;2024-01-15T05:52:28;98896.53;;;-3.70;95.32
76352;BME280;65179;47.786;19.138;2024-01-15T05:54:53;98885.22;;;-3.72;95.83
76352;BME280;65179;47.786;19.138;2024-01-15T05:57:19;98876.78;;;-3.68;94.85
76352;BME280;65179;47.786;19.138;2024-01-15T05:59:45;98879.28;;;-3.66;95.55
76352;BME280;65179;47.786;19.138;2024-01-15T06:02:10;98870.31;;;-3.65;95.72
76352;BME280;65179;47.786;19.138;2024-01-15T06:04:36;98878.94;;;-3.71;96.55
76352;BME280;65179;47.786;19.138;2024-01-15T06:07:01;98885.91;;;-3.78;96.77
76352;BME280;65179;47.786;19.138;2024-01-15T06:09:27;98878.09;;;-3.72;96.01
76352;BME280;65179;47.786;19.138;2024-01-15T06:11:56;98889.38;;;-3.70;95.59
76352;BME280;65179;47.786;19.138;2024-01-15T06:14:21;98883.09;;;-3.77;95.10
76352;BME280;65179;47.786;19.138;2024-01-15T06:16:47;98877.81;;;-3.77;95.29
76352;BME280;65179;47.786;19.138;2024-01-15T06:19:15;98883.44;;;-3.88;95.46
76352;BME280;65179;47.786;19.138;2024-01-15T06:21:40;98869.84;;;-3.93;95.30
76352;BME280;65179;47.786;19.138;2024-01-15T06:24:06;98867.19;;;-3.93;95.45
76352;BME280;65179;47.786;19.138;2024-01-15T06:26:31;98862.38;;;-3.90;95.34
76352;BME280;65179;47.786;19.138;2024-01-15T06:28:57;98864.87;;;-3.88;95.24
76352;BME280;65179;47.786;19.138;2024-01-15T06:31:22;98880.25;;;-3.92;95.21
76352;BME280;65179;47.786;19.138;2024-01-15T06:33:48;98879.78;;;-3.95;95.21
76352;BME280;65179;47.786;19.138;2024-01-15T06:36:14;98880.44;;;-3.93;95.41
76352;BME280;65179;47.786;19.138;2024-01-15T06:38:42;98876.47;;;-4.05;95.67
76352;BME280;65179;47.786;19.138;2024-01-15T06:41:08;98873.16;;;-4.07;95.27
76352;BME280;65179;47.786;19.138;2024-01-15T06:43:33;98870.16;;;-4.04;95.49
76352;BME280;65179;47.786;19.138;2024-01-15T06:45:59;98868.16;;;-4.02;95.49
76352;BME280;65179;47.786;19.138;2024-01-15T06:48:24;98894.69;;;-4.18;95.94
76352;BME280;65179;47.786;19.138;2024-01-15T06:50:50;98885.22;;;-4.21;96.05
76352;BME280;65179;47.786;19.138;2024-01-15T06:53:15;98887.87;;;-4.21;95.82
76352;BME280;65179;47.786;19.138;2024-01-15T06:55:41;98895.00;;;-4.21;95.41
76352;BME280;65179;47.786;19.138;2024-01-15T06:58:06;98892.50;;;-4.23;95.14
76352;BME280;65179;47.786;19.138;2024-01-15T07:00:32;98908.41;;;-4.23;94.93
76352;BME280;65179;47.786;19.138;2024-01-15T07:02:57;98906.44;;;-4.29;95.18
76352;BME280;65179;47.786;19.138;2024-01-15T07:05:23;98913.84;;;-4.32;95.36
76352;BME280;65179;47.786;19.138;2024-01-15T07:07:49;98903.25;;;-4.32;95.52
76352;BME280;65179;47.786;19.138;2024-01-15T07:10:14;98902.09;;;-4.30;95.39
76352;BME280;65179;47.786;19.138;2024-01-15T07:12:43;98909.56;;;-4.25;96.21
76352;BME280;65179;47.786;19.138;2024-01-15T07:15:09;98905.59;;;-4.21;96.04
76352;BME280;65179;47.786;19.138;2024-01-15T07:17:35;98904.28;;;-4.17;96.02
76352;BME280;65179;47.786;19.138;2024-01-15T07:20:01;98908.41;;;-4.15;96.10
76352;BME280;65179;47.786;19.138;2024-01-15T07:22:27;98905.59;;;-4.13;95.97
76352;BME280;65179;47.786;19.138;2024-01-15T07:24:52;98910.59;;;-4.18;96.38
76352;BME280;65179;47.786;19.138;2024-01-15T07:27:18;98917.22;;;-4.14;96.29
76352;BME280;65179;47.786;19.138;2024-01-15T07:29:43;98926.81;;;-4.13;96.00
76352;BME280;65179;47.786;19.138;2024-01-15T07:32:09;98946.19;;;-4.21;95.61
76352;BME280;65179;47.786;19.138;2024-01-15T07:34:34;98930.09;;;-4.19;95.66
76352;BME280;65179;47.786;19.138;2024-01-15T07:37:00;98938.72;;;-4.25;95.64
76352;BME280;65179;47.786;19.138;2024-01-15T07:39:27;98937.69;;;-4.24;96.45
76352;BME280;65179;47.786;19.138;2024-01-15T07:41:54;98955.47;;;-4.17;96.12
76352;BME280;65179;47.786;19.138;2024-01-15T07:44:19;98955.47;;;-4.09;96.10
76352;BME280;65179;47.786;19.138;2024-01-15T07:46:46;98960.81;;;-4.01;96.36
76352;BME280;65179;47.786;19.138;2024-01-15T07:49:11;98959.00;;;-3.92;96.67
76352;BME280;65179;47.786;19.138;2024-01-15T07:51:37;98963.31;;;-3.83;96.67
76352;BME280;65179;47.786;19.138;2024-01-15T07:54:03;98958.69;;;-3.73;96.60
76352;BME280;65179;47.786;19.138;2024-01-15T07:56:28;98962.50;;;-3.67;97.70
76352;BME280;65179;47.786;19.138;2024-01-15T07:58:54;98971.63;;;-3.54;96.82
76352;BME280;65179;47.786;19.138;2024-01-15T08:01:19;98956.31;;;-3.12;96.43
76352;BME280;65179;47.786;19.138;2024-01-15T08:03:44;98957.44;;;-2.90;96.03
76352;BME280;65179;47.786;19.138;2024-01-15T08:06:10;98954.22;;;-2.61;94.79
76352;BME280;65179;47.786;19.138;2024-01-15T08:08:36;98959.44;;;-2.37;94.39
76352;BME280;65179;47.786;19.138;2024-01-15T08:11:02;98951.94;;;-2.03;94.30
76352;BME280;65179;47.786;19.138;2024-01-15T08:13:27;98957.16;;;-1.87;93.10
76352;BME280;65179;47.786;19.138;2024-01-15T08:15:53;98955.03;;;-1.69;92.13
76352;BME280;65179;47.786;19.138;2024-01-15T08:18:18;98968.16;;;-1.44;91.42
76352;BME280;65179;47.786;19.138;2024-01-15T08:20:44;98954.53;;;-1.27;90.43
76352;BME280;65179;47.786;19.138;2024-01-15T08:23:09;98955.56;;;-1.13;89.59
76352;BME280;65179;47.786;19.138;2024-01-15T08:25:34;98954.75;;;-0.99;89.23
76352;BME280;65179;47.786;19.138;2024-01-15T08:28:00;98941.28;;;-0.83;87.34
76352;BME280;65179;47.786;19.138;2024-01-15T08:30:25;98949.37;;;-0.77;87.04
76352;BME280;65179;47.786;19.138;2024-01-15T08:32:53;98936.41;;;-0.65;86.34
76352;BME280;65179;47.786;19.138;2024-01-15T08:35:19;98939.63;;;-0.55;85.57
76352;BME280;65179;47.786;19.138;2024-01-15T08:37:51;98942.81;;;-0.45;84.92
76352;BME280;65179;47.786;19.138;2024-01-15T08:40:17;98949.63;;;-0.42;84.75
76352;BME280;65179;47.786;19.138;2024-01-15T08:42:43;98942.72;;;-0.37;84.28
76352;BME280;65179;47.786;19.138;2024-01-15T08:45:09;98938.38;;;-0.23;82.20
76352;BME280;65179;47.786;19.138;2024-01-15T08:47:35;98935.59;;;-0.15;81.66
76352;BME280;65179;47.786;19.138;2024-01-15T08:50:00;98945.06;;;-0.13;81.81
76352;BME280;65179;47.786;19.138;2024-01-15T08:52:26;98946.63;;;-0.04;81.16
76352;BME280;65179;47.786;19.138;2024-01-15T08:54:51;98950.19;;;0.04;80.31
76352;BME280;65179;47.786;19.138;2024-01-15T08:57:17;98958.09;;;0.12;80.21
76352;BME280;65179;47.786;19.138;2024-01-15T08:59:42;98949.47;;;0.31;79.40
76352;BME280;65179;47.786;19.138;2024-01-15T09:02:08;98952.44;;;0.63;78.68
76352;BME280;65179;47.786;19.138;2024-01-15T09:04:34;98963.56;;;1.16;77.17
76352;BME280;65179;47.786;19.138;2024-01-15T09:06:59;98948.69;;;1.69;73.61
76352;BME280;65179;47.786;19.138;2024-01-15T09:09:25;98942.25;;;2.17;70.52
76352;BME280;65179;47.786;19.138;2024-01-15T09:11:51;98933.91;;;2.59;68.96
76352;BME280;65179;47.786;19.138;2024-01-15T09:14:16;98927.94;;;2.90;67.33
76352;BME280;65179;47.786;19.138;2024-01-15T09:16:42;98921.75;;;2.89;64.75
76352;BME280;65179;47.786;19.138;2024-01-15T09:19:07;98918.44;;;3.14;65.03
76352;BME280;65179;47.786;19.138;2024-01-15T09:21:33;98918.44;;;3.20;64.65
76352;BME280;65179;47.786;19.138;2024-01-15T09:23:58;98914.59;;;3.67;64.23
76352;BME280;65179;47.786;19.138;2024-01-15T09:26:24;98901.84;;;4.00;62.71
76352;BME280;65179;47.786;19.138;2024-01-15T09:28:49;98900.44;;;3.91;61.77
76352;BME280;65179;47.786;19.138;2024-01-15T09:31:15;98912.81;;;3.92;61.26
76352;BME280;65179;47.786;19.138;2024-01-15T09:33:43;98907.56;;;4.10;61.74
76352;BME280;65179;47.786;19.138;2024-01-15T09:36:09;98912.53;;;4.44;59.83
76352;BME280;65179;47.786;19.138;2024-01-15T09:38:34;98906.81;;;4.66;58.83
76352;BME280;65179;47.786;19.138;2024-01-15T09:41:00;98909.81;;;5.25;59.29
76352;BME280;65179;47.786;19.138;2024-01-15T09:43:25;98898.25;;;5.00;56.93
76352;BME280;65179;47.786;19.138;2024-01-15T09:45:51;98897.34;;;5.30;56.41
76352;BME280;65179;47.786;19.138;2024-01-15T09:48:18;98892.69;;;5.37;54.74
76352;BME280;65179;47.786;19.138;2024-01-15T09:50:43;98886.66;;;5.60;54.37
76352;BME280;65179;47.786;19.138;2024-01-15T09:53:09;98876.56;;;5.74;54.19
76352;BME280;65179;47.786;19.138;2024-01-15T09:55:36;98880.31;;;5.91;53.88
76352;BME280;65179;47.786;19.138;2024-01-15T09:58:03;98871.03;;;5.87;53.54
76352;BME280;65179;47.786;19.138;2024-01-15T10:00:29;98874.28;;;6.07;52.48
76352;BME280;65179;47.786;19.138;2024-01-15T10:02:56;98869.66;;;5.96;52.47
76352;BME280;65179;47.786;19.138;2024-01-15T10:05:22;98873.41;;;6.25;52.35
76352;BME280;65179;47.786;19.138;2024-01-15T10:07:48;98857.16;;;6.01;51.11
76352;BME280;65179;47.786;19.138;2024-01-15T10:10:17;98850.13;;;6.00;51.14
76352;BME280;65179;47.786;19.138;2024-01-15T10:12:42;98858.50;;;6.10;51.04
76352;BME280;65179;47.786;19.138;2024-01-15T10:15:12;98856.13;;;6.32;51.04
76352;BME280;65179;47.786;19.138;2024-01-15T10:17:38;98843.63;;;6.72;50.27
76352;BME280;65179;47.786;19.138;2024-01-15T10:20:12;98851.03;;;7.00;49.19
76352;BME280;65179;47.786;19.138;2024-01-15T10:22:42;98845.53;;;7.07;48.32
76352;BME280;65179;47.786;19.138;2024-01-15T10:25:12;98850.66;;;7.54;48.98
76352;BME280;65179;47.786;19.138;2024-01-15T10:27:38;98857.97;;;7.08;47.54
76352;BME280;65179;47.786;19.138;2024-01-15T10:30:04;98850.28;;;7.62;48.19
76352;BME280;65179;47.786;19.138;2024-01-15T10:32:31;98842.22;;;7.28;47.67
76352;BME280;65179;47.786;19.138;2024-01-15T10:34:57;98831.88;;;7.48;47.87
76352;BME280;65179;47.786;19.138;2024-01-15T10:37:24;98827.03;;;7.61;47.19
76352;BME280;65179;47.786;19.138;2024-01-15T10:39:50;98838.12;;;8.16;45.79
76352;BME280;65179;47.786;19.138;2024-01-15T10:42:15;98842.56;;;8.67;45.64
76352;BME280;65179;47.786;19.138;2024-01-15T10:44:43;98837.63;;;7.91;45.92
76352;BME280;65179;47.786;19.138;2024-01-15T10:47:09;98819.63;;;7.97;44.65
76352;BME280;65179;47.786;19.138;2024-01-15T10:49:34;98817.13;;;8.07;44.63
76352;BME280;65179;47.786;19.138;2024-01-15T10:52:01;98814.50;;;8.40;43.96
76352;BME280;65179;47.786;19.138;2024-01-15T10:54:27;98818.56;;;8.26;43.78
76352;BME280;65179;47.786;19.138;2024-01-15T10:56:53;98812.28;;;8.37;43.18
76352;BME280;65179;47.786;19.138;2024-01-15T10:59:20;98792.81;;;9.06;43.10
76352;BME280;65179;47.786;19.138;2024-01-15T11:01:46;98800.06;;;8.84;42.39
76352;BME280;65179;47.786;19.138;2024-01-15T11:04:13;98799.66;;;9.31;42.55
76352;BME280;65179;47.786;19.138;2024-01-15T11:06:43;98796.22;;;9.18;42.08
76352;BME280;65179;47.786;19.138;2024-01-15T11:09:10;98788.41;;;8.34;42.57
76352;BME280;65179;47.786;19.138;2024-01-15T11:11:36;98808.69;;;8.20;43.27
76352;BME280;65179;47.786;19.138;2024-01-15T11:14:05;98807.13;;;8.85;42.51
76352;BME280;65179;47.786;19.138;2024-01-15T11:16:57;98797.44;;;8.56;42.94
76352;BME280;65179;47.786;19.138;2024-01-15T11:19:24;98794.78;;;8.94;41.96
76352;BME280;65179;47.786;19.138;2024-01-15T11:21:50;98797.09;;;8.36;43.38
76352;BME280;65179;47.786;19.138;2024-01-15T11:24:37;98802.28;;;8.37;42.84
76352;BME280;65179;47.786;19.138;2024-01-15T11:27:03;98796.63;;;8.56;43.10
76352;BME280;65179;47.786;19.138;2024-01-15T11:32:01;98806.88;;;8.09;43.98
76352;BME280;65179;47.786;19.138;2024-01-15T11:35:01;98799.59;;;7.30;44.72
76352;BME280;65179;47.786;19.138;2024-01-15T11:40:37;98805.97;;;6.89;45.29
76352;BME280;65179;47.786;19.138;2024-01-15T11:43:04;98807.56;;;7.36;45.33
76352;BME280;65179;47.786;19.138;2024-01-15T11:45:31;98826.81;;;7.51;44.95
76352;BME280;65179;47.786;19.138;2024-01-15T11:48:09;98826.59;;;7.30;45.46
76352;BME280;65179;47.786;19.138;2024-01-15T11:50:48;98823.19;;;7.86;44.55
76352;BME280;65179;47.786;19.138;2024-01-15T11:56:14;98828.75;;;7.79;43.77
76352;BME280;65179;47.786;19.138;2024-01-15T11:58:40;98813.84;;;8.33;43.24
76352;BME280;65179;47.786;19.138;2024-01-15T12:01:05;98800.56;;;8.98;42.25
76352;BME280;65179;47.786;19.138;2024-01-15T12:03:32;98788.75;;;9.90;41.30
76352;BME280;65179;47.786;19.138;2024-01-15T12:05:58;98785.75;;;9.05;40.92
76352;BME280;65179;47.786;19.138;2024-01-15T12:08:25;98803.38;;;8.70;42.07
76352;BME280;65179;47.786;19.138;2024-01-15T12:10:52;98783.91;;;9.28;41.12
76352;BME280;65179;47.786;19.138;2024-01-15T12:13:18;98784.09;;;9.86;40.48
76352;BME280;65179;47.786;19.138;2024-01-15T12:15:45;98786.72;;;10.29;39.59
76352;BME280;65179;47.786;19.138;2024-01-15T12:18:15;98777.16;;;9.30;41.77
76352;BME280;65179;47.786;19.138;2024-01-15T12:20:41;98776.22;;;9.84;40.68
76352;BME280;65179;47.786;19.138;2024-01-15T12:23:12;98775.03;;;9.75;40.62
76352;BME280;65179;47.786;19.138;2024-01-15T12:25:39;98765.63;;;9.83;40.05
76352;BME280;65179;47.786;19.138;2024-01-15T12:28:05;98763.12;;;9.55;40.65
76352;BME280;65179;47.786;19.138;2024-01-15T12:30:33;98760.34;;;9.50;40.36
76352;BME280;65179;47.786;19.138;2024-01-15T12:33:02;98760.16;;;10.05;39.80
76352;BME280;65179;47.786;19.138;2024-01-15T12:35:29;98755.44;;;9.95;39.92
76352;BME280;65179;47.786;19.138;2024-01-15T12:37:55;98748.38;;;9.02;41.42
76352;BME280;65179;47.786;19.138;2024-01-15T12:40:21;98740.34;;;8.91;41.57
76352;BME280;65179;47.786;19.138;2024-01-15T12:42:47;98742.97;;;8.03;42.58
76352;BME280;65179;47.786;19.138;2024-01-15T12:45:13;98733.00;;;8.20;43.31
76352;BME280;65179;47.786;19.138;2024-01-15T12:47:40;98726.56;;;7.93;43.56
76352;BME280;65179;47.786;19.138;2024-01-15T12:50:07;98720.09;;;7.49;44.43
76352;BME280;65179;47.786;19.138;2024-01-15T12:52:33;98707.19;;;7.39;44.87
76352;BME280;65179;47.786;19.138;2024-01-15T12:54:58;98713.37;;;7.23;44.91